Nashville, Tennessee
Traffic Map
Current Weather Conditions
Nashville, Tennessee
Overcast
Overcast

Feels Like: 1°
Wind Chill: Ceiling: 6000
Heat Index: Visibility: 10mi
Dew Point: -1° Wind: 3mph
Humidity: 89% Direction: 90° (E)
Pressure: 29.98in Gusts: 0mph
Raw Report DataKBNA 270253Z 09003KT 10SM OVC060 01/M01 A2998 RMK AO2 SLP156 60000 T00111006 51011
Traffic Incident Summary
Active as of:
Severity:
Category:
InformationThere was an issue retrieving the traffic information for this location. Please try a different location or try again shortly.
Advertisements
Track Severe Weather on mobile